CS1344 Weather Reports


time (UTC)temp
F
wind
direction
speed
knots
gust
knots
rain 1hr
in
rain 24hr
in
rain mn
in
humidity
%
barometer
mb
20260507003028 74 184 2.6 7.8 0.00 0.01 0.01 88 1014.9
20260507001519 75 122 3.5 8.7 0.00 0.01 0.01 86 1014.5
20260507000006 75 166 2.6 6.1 0.00 0.01 0.01 84 1014.6
20260506234505 76 151 2.6 6.1 0.00 0.01 0.01 83 1014.4
20260506233007 77 210 4.3 7.0 0.00 0.01 0.01 81 1014.4
20260506231504 77 185 4.3 9.6 0.00 0.01 0.01 79 1014.6
20260506230006 78 155 3.5 9.6 0.00 0.01 0.01 77 1014.5
20260506224508 79 192 3.5 7.8 0.00 0.01 0.01 74 1014.8
20260506223014 79 169 3.5 9.6 0.00 0.01 0.01 72 1014.9
20260506221508 80 203 4.3 7.8 0.00 0.01 0.01 71 1014.9
20260506220008 80 108 4.3 8.7 0.00 0.01 0.01 70 1015.0
20260506214506 81 130 3.5 9.6 0.00 0.01 0.01 69 1015.6
20260506213008 82 181 4.3 8.7 0.00 0.01 0.01 67 1015.5
20260506211506 81 143 3.5 8.7 0.00 0.01 0.01 69 1015.5
20260506210016 82 143 3.5 7.8 0.00 0.01 0.01 67 1015.6
20260506204511 81 153 4.3 13.0 0.00 0.01 0.01 70 1015.7
20260506203010 81 120 3.5 9.6 0.00 0.01 0.01 70 1015.7
20260506201512 82 182 2.6 9.6 0.00 0.01 0.01 69 1016.0
20260506200009 83 181 3.5 10.4 0.00 0.01 0.01 68 1016.5
20260506194511 84 161 3.5 9.6 0.00 0.01 0.01 65 1016.7
20260506193015 84 70 1.7 9.6 0.00 0.01 0.01 66 1016.8
20260506191512 84 86 1.7 8.7 0.00 0.01 0.01 65 1016.9
20260506190012 84 153 3.5 8.7 0.00 0.01 0.01 64 1017.1
20260506184513 83 212 3.5 8.7 0.00 0.01 0.01 64 1017.2
20260506183016 84 212 4.3 9.6 0.00 0.01 0.01 63 1017.2
20260506181513 84 130 2.6 7.8 0.00 0.01 0.01 63 1017.3
20260506180025 83 154 2.6 10.4 0.00 0.01 0.01 66 1017.5
20260506174520 83 105 1.7 10.4 0.00 0.01 0.01 67 1017.6
20260506173022 83 162 3.5 9.6 0.00 0.01 0.01 69 1017.7
20260506171517 83 152 1.7 11.3 0.00 0.01 0.01 65 1017.9
20260506170021 83 176 4.3 8.7 0.00 0.01 0.01 69 1017.9
20260506164520 82 162 4.3 8.7 0.00 0.01 0.01 70 1017.7
20260506163030 82 192 4.3 10.4 0.00 0.01 0.01 70 1017.6
20260506161520 80 166 4.3 8.7 0.00 0.01 0.01 73 1017.5
20260506160021 80 140 4.3 13.0 0.00 0.01 0.01 73 1017.4
20260506154524 81 228 3.5 10.4 0.00 0.01 0.01 74 1017.4
20260506153021 80 231 4.3 9.6 0.00 0.01 0.01 74 1017.3
20260506151526 79 161 5.2 9.6 0.00 0.01 0.01 75 1017.1
20260506150018 79 200 4.3 10.4 0.00 0.01 0.01 76 1017.0
20260506144525 79 153 5.2 10.4 0.00 0.01 0.01 76 1016.7
20260506143004 79 148 6.1 11.3 0.00 0.01 0.01 77 1016.7
20260506141507 79 232 2.6 9.6 0.00 0.01 0.01 79 1016.6
20260506140016 78 193 5.2 8.7 0.01 0.01 0.01 81 1016.4
20260506134521 75 150 4.3 7.0 0.01 0.01 0.01 88 1016.4
20260506133024 73 182 2.6 6.1 0.01 0.01 0.01 95 1016.2
20260506131507 73 181 1.7 5.2 0.01 0.01 0.01 97 1016.0
20260506130011 71 165 0.0 1.7 0.00 0.00 0.00 97 1015.9
20260506124517 69 171 0.0 1.7 0.00 0.00 0.00 97 1015.7
20260506123024 68 124 0.0 1.7 0.00 0.00 0.00 97 1015.5
20260506121527 67 66 0.9 2.6 0.00 0.00 0.00 97 1015.1
20260506120028 66 109 0.9 3.5 0.00 0.00 0.00 97 1014.9
20260506114511 65 113 0.0 1.7 0.00 0.00 0.00 97 1014.7
20260506113018 64 70 0.0 0.0 0.00 0.00 0.00 97 1014.5
20260506111524 63 45 0.0 0.9 0.00 0.00 0.00 97 1014.4
20260506110027 64 2 0.0 0.0 0.00 0.00 0.00 97 1014.2
20260506104529 64 285 0.0 0.0 0.00 0.00 0.00 97 1014.2
20260506103022 64 285 0.0 0.0 0.00 0.00 0.00 97 1014.0
20260506101506 64 285 0.0 0.0 0.00 0.00 0.00 97 1013.9
20260506100004 63 285 0.0 0.0 0.00 0.00 0.00 97 1013.9
20260506094519 64 285 0.0 0.0 0.00 0.00 0.00 97 1014.1
20260506093015 63 285 0.0 0.0 0.00 0.00 0.00 97 1014.0
20260506091518 63 261 0.0 0.0 0.00 0.00 0.00 97 1014.0
20260506090005 63 261 0.0 0.0 0.00 0.00 0.00 96 1014.2
20260506084505 63 196 0.0 0.0 0.00 0.00 0.00 95 1014.2
20260506083012 65 198 0.0 0.0 0.00 0.00 0.00 97 1014.3
20260506081514 65 302 0.0 0.0 0.00 0.00 0.00 97 1014.5
20260506073011 64 147 0.0 0.0 0.00 0.00 0.00 95 1014.3
20260506071514 66 148 0.0 0.0 0.00 0.00 0.00 96 1014.5
20260506061508 65 150 0.0 0.0 0.00 0.00 0.00 96 1014.8
20260506044547 68 165 0.0 0.0 0.00 0.00 0.00 94 1015.5
20260506043022 69 165 0.0 0.0 0.00 0.00 0.00 94 1015.8
20260506041524 70 129 0.0 2.6 0.00 0.00 0.00 94 1015.8
20260506040029 70 150 0.0 0.0 0.00 0.00 0.00 94 1016.0
20260506034534 70 162 0.0 0.0 0.00 0.00 0.00 94 1015.9
20260506033019 70 122 0.0 1.7 0.00 0.00 0.00 93 1015.8
20260506031522 71 131 0.9 3.5 0.00 0.00 0.00 93 1015.8
20260506030024 71 146 1.7 4.3 0.00 0.00 0.00 93 1015.9
20260506024528 71 160 0.9 2.6 0.00 0.00 0.00 93 1015.7
20260506023016 71 148 0.9 1.7 0.00 0.00 0.00 92 1015.6
20260506021520 71 143 0.9 2.6 0.00 0.00 0.00 91 1015.6
20260506020026 71 196 0.9 2.6 0.00 0.00 0.00 91 1015.8
20260506014530 71 139 0.9 3.5 0.00 0.00 0.00 90 1015.6
20260506013027 71 158 1.7 4.3 0.00 0.00 0.00 89 1015.5
20260506011507 71 151 0.9 3.5 0.00 0.00 0.00 89 1015.4
20260506010005 72 143 1.7 5.2 0.00 0.00 0.00 88 1015.3
20260506004504 72 169 1.7 4.3 0.00 0.00 0.00 87 1015.2